Flight Track Log - Related Links

Times and Time Zones

All times are in EDT time to prevent confusion due to time zone crossing. See the NKS341 flight status page for this flight to view local times or setup timezone preferences in your user account.

Time Position Orientation Groundspeed Altitude Reporting Facility
EDT Latitude Longitude Course Direction KTS MPH feet Rate Location/Type
Tue 10:34:35 AM 39.4390 -74.5273 115° Southeast 174 200 1,800  Level FlightAware
Tue 10:34:52 AM 39.4330 -74.5099 114° Southeast 184 212 2,100 1,636 Climbing FlightAware
Tue 10:35:08 AM 39.4246 -74.4935 124° Southeast 209 241 2,700 2,400 Climbing FlightAware
Tue 10:35:22 AM 39.4121 -74.4869 158° South 208 239 3,300 2,400 Climbing FlightAware
Tue 10:35:28 AM 39.4071 -74.4866 177° South 213 245 3,500 1,765 Climbing FlightAware
Tue 10:35:39 AM 39.3959 -74.4902 194° South 225 259 3,800 2,000 Climbing FlightAware
Tue 10:35:43 AM 39.3923 -74.4932 213° Southwest 231 266 4,000 2,571 Climbing FlightAware
Tue 10:35:46 AM 39.3897 -74.4958 218° Southwest 235 270 4,100 1,714 Climbing FlightAware
Tue 10:35:50 AM 39.3868 -74.4991 221° Southwest 239 275 4,200 2,100 Climbing FlightAware
Tue 10:36:06 AM 39.3731 -74.5155 223° Southwest 259 298 4,800 2,571 Climbing FlightAware
Tue 10:36:18 AM 39.3624 -74.5285 223° Southwest 264 304 5,400 3,103 Climbing FlightAware
Tue 10:36:35 AM 39.3469 -74.5476 224° Southwest 269 310 6,300 2,471 Climbing FlightAware
Tue 10:36:52 AM 39.3320 -74.5661 224° Southwest 272 313 6,800 1,875 Climbing FlightAware
Tue 10:37:07 AM 39.3183 -74.5834 224° Southwest 272 313 7,300 2,571 Climbing FlightAware
Tue 10:37:13 AM 39.3129 -74.5902 224° Southwest 275 316 7,700 3,652 Climbing FlightAware
Tue 10:37:30 AM 39.2974 -74.6098 224° Southwest 274 315 8,700 3,455 Climbing FlightAware
Tue 10:37:46 AM 39.2827 -74.6281 224° Southwest 275 316 9,600 2,500 Climbing FlightAware
Tue 10:38:18 AM 39.2528 -74.6670 225° Southwest 278 320 10,700 1,953 Climbing FlightAware
Tue 10:38:29 AM 39.2440 -74.6843 237° Southwest 315 362 11,000 2,368 Climbing FlightAware
Tue 10:38:56 AM 39.2250 -74.7303 242° Southwest 323 372 12,200 2,949 Climbing FlightAware
Tue 10:39:28 AM 39.2037 -74.7827 242° Southwest 311 358 13,900 2,492 Climbing FlightAware
Tue 10:40:01 AM 39.1811 -74.8413 244° Southwest 336 387 14,900 1,726 Climbing FlightAware
Tue 10:40:41 AM 39.1532 -74.9128 243° Southwest 347 399 16,000 1,054 Climbing FlightAware
Tue 10:41:15 AM 39.1290 -74.9750 243° Southwest 351 404 16,200 383 Climbing FlightAware
Tue 10:41:28 AM 39.1196 -75.0007 245° Southwest 352 405 16,300 558 Climbing FlightAware
Tue 10:41:58 AM 39.0977 -75.0581 244° Southwest 353 406 16,600 476 Climbing FlightAware
Tue 10:42:31 AM 39.0750 -75.1194 245° Southwest 348 400 16,800 462 Climbing FlightAware
Tue 10:42:50 AM 39.0617 -75.1544 244° Southwest 345 397 17,000 333 Climbing FlightAware
Tue 10:43:07 AM 39.0435 -75.1810 229° Southwest 341 392 17,000  Level FlightAware
Tue 10:43:15 AM 39.0328 -75.1898 213° Southwest 342 394 17,000  Level FlightAware
Tue 10:43:20 AM 39.0262 -75.1937 205° Southwest 342 394 17,000  Level FlightAware
Tue 10:43:23 AM 39.0217 -75.1960 202° Southwest 343 395 17,000 1,622 Level FlightAware
Tue 10:43:57 AM 38.9702 -75.2203 200° South 349 402 18,000 1,846 Climbing FlightAware
Tue 10:44:28 AM 38.9237 -75.2425 200° South 356 410 19,000 1,967 Climbing FlightAware
Tue 10:44:58 AM 38.8784 -75.2635 200° South 324 373 20,000 896 Climbing FlightAware
Tue 10:45:35 AM 38.8272 -75.2874 200° South 314 361 20,000 716 Level FlightAware
Tue 10:46:05 AM 38.7869 -75.3062 200° South 316 364 20,800 1,770 Climbing FlightAware
Tue 10:46:36 AM 38.7439 -75.3261 200° South 322 371 21,800 1,364 Climbing FlightAware
Tue 10:47:11 AM 38.6950 -75.3490 200° South 345 397 22,300 800 Climbing FlightAware
Tue 10:47:51 AM 38.6320 -75.3790 200° South 375 432 22,800 847 Climbing FlightAware
Tue 10:48:36 AM 38.5540 -75.4150 200° South 391 450 23,500 1,146 Climbing FlightAware
Tue 10:49:20 AM 38.4780 -75.4500 200° South 409 471 24,500 1,291 Climbing FlightAware
Tue 10:49:55 AM 38.4190 -75.4770 200° South 409 471 25,200 1,271 Climbing FlightAware
Tue 10:50:45 AM 38.3260 -75.5320 205° Southwest 415 478 26,300 1,333 Climbing FlightAware
Tue 10:51:25 AM 38.2630 -75.5880 215° Southwest 421 484 27,200 1,301 Climbing FlightAware
Tue 10:52:08 AM 38.2030 -75.6450 217° Southwest 424 488 28,100 1,355 Climbing FlightAware
Tue 10:52:58 AM 38.1141 -75.7284 216° Southwest 427 491 29,300 1,425 Climbing FlightAware
Tue 10:53:28 AM 38.0663 -75.7732 216° Southwest 427 491 30,000 1,304 Climbing FlightAware
Tue 10:53:44 AM 38.0397 -75.7951 213° Southwest 429 494 30,300 1,412 Climbing FlightAware
Tue 10:54:19 AM 37.9777 -75.8375 208° Southwest 427 491 31,200 1,364 Climbing FlightAware
Tue 10:54:50 AM 37.9246 -75.8740 208° Southwest 427 491 31,800 762 Climbing FlightAware
Tue 10:55:22 AM 37.8685 -75.9125 208° Southwest 425 489 32,000 132 Climbing FlightAware
Tue 10:56:21 AM 37.8310 -75.9380 208° Southwest 423 487 32,000  Level FlightAware
Tue 10:57:00 AM 37.7090 -76.0220 209° Southwest 419 482 32,000  Level FlightAware
Tue 10:57:39 AM 37.6430 -76.0660 208° Southwest 424 488 32,000  Level FlightAware
Tue 10:58:17 AM 37.5658 -76.1182 208° Southwest 427 491 32,000  Level FlightAware
Tue 10:58:49 AM 37.5103 -76.1559 208° Southwest 430 495 32,000  Level FlightAware
Tue 10:59:20 AM 37.4563 -76.1925 208° Southwest 431 496 32,000  Level FlightAware
Tue 10:59:53 AM 37.3977 -76.2319 208° Southwest 431 496 32,000 537 Level FlightAware
Tue 11:00:27 AM 37.3387 -76.2716 208° Southwest 430 495 32,600 1,055 Climbing FlightAware
Tue 11:01:24 AM 37.2490 -76.3320 208° Southwest 427 491 33,600 1,105 Climbing FlightAware
Tue 11:01:43 AM 37.2065 -76.3605 208° Southwest 430 495 34,000 276 Climbing FlightAware
Tue 11:02:51 AM 37.0910 -76.4380 208° Southwest 418 481 34,000  Level FlightAware
Tue 11:03:31 AM 37.0210 -76.4840 208° Southwest 418 481 34,000  Level FlightAware
Tue 11:04:15 AM 36.9460 -76.5350 209° Southwest 418 481 34,000  Level FlightAware
Tue 11:04:59 AM 36.8770 -76.5800 208° Southwest 418 481 34,000  Level FlightAware
Tue 11:05:39 AM 36.8030 -76.6300 208° Southwest 419 482 34,000  Level FlightAware
Tue 11:06:19 AM 36.7360 -76.6740 208° Southwest 419 482 34,000  Level FlightAware
Tue 11:07:01 AM 36.6680 -76.7180 207° Southwest 34,000  Level FlightAware
Tue 11:07:47 AM 36.5930 -76.7670 208° Southwest 420 483 34,000  Level FlightAware
Tue 11:08:22 AM 36.5410 -76.8000 207° Southwest 420 483 34,000  Level FlightAware
Tue 11:09:11 AM 36.4450 -76.8650 209° Southwest 423 487 34,000  Level FlightAware
Tue 11:09:49 AM 36.3870 -76.9030 208° Southwest 417 480 34,000  Level FlightAware
Tue 11:10:28 AM 36.3230 -76.9450 208° Southwest 417 480 34,000  Level FlightAware
Tue 11:11:14 AM 36.2570 -76.9890 208° Southwest 417 480 34,000  Level FlightAware
Tue 11:12:01 AM 36.1890 -77.0340 208° Southwest 417 480 34,000  Level FlightAware
Tue 11:12:37 AM 36.1360 -77.0680 207° Southwest 417 480 34,000  Level FlightAware
Tue 11:13:35 AM 36.0520 -77.1230 208° Southwest 417 480 34,000  Level FlightAware
Tue 11:14:20 AM 35.9070 -77.2150 207° Southwest 420 483 34,000  Level FlightAware
Tue 11:15:15 AM 35.8160 -77.3000 217° Southwest 422 486 34,000  Level FlightAware
Tue 11:16:13 AM 35.7400 -77.3730 218° Southwest 422 486 34,000  Level FlightAware
Tue 11:16:57 AM 35.6680 -77.4440 219° Southwest 420 483 34,000  Level FlightAware
Tue 11:17:36 AM 35.6170 -77.4930 218° Southwest 420 483 34,000  Level FlightAware
Tue 11:18:12 AM 35.5700 -77.5380 218° Southwest 420 483 34,000  Level FlightAware
Tue 11:19:00 AM 35.5080 -77.5980 218° Southwest 420 483 34,000  Level FlightAware
Tue 11:19:46 AM 35.4480 -77.6550 218° Southwest 420 483 34,000  Level FlightAware
Tue 11:20:23 AM 35.4000 -77.7010 218° Southwest 420 483 34,000  Level FlightAware
Tue 11:21:07 AM 35.3430 -77.7560 218° Southwest 420 483 34,000  Level FlightAware
Tue 11:21:43 AM 35.2960 -77.8010 218° Southwest 420 483 34,000  Level FlightAware
Tue 11:22:32 AM 35.2320 -77.8620 218° Southwest 420 483 34,000  Level FlightAware
Tue 11:23:11 AM 35.1810 -77.9100 218° Southwest 420 483 34,000  Level FlightAware
Tue 11:23:47 AM 35.1340 -77.9550 218° Southwest 420 483 34,000  Level FlightAware
Tue 11:24:36 AM 35.0710 -78.0160 218° Southwest 420 483 34,000  Level FlightAware
Tue 11:25:15 AM 35.0200 -78.0640 218° Southwest 420 483 34,000  Level FlightAware
Tue 11:26:18 AM 34.9380 -78.1430 218° Southwest 420 483 34,000  Level FlightAware
Tue 11:26:53 AM 34.7390 -78.3380 219° Southwest 428 493 34,000  Level FlightAware
Tue 11:28:08 AM 34.6360 -78.4360 218° Southwest 428 493 34,000  Level FlightAware
Tue 11:28:43 AM 34.5890 -78.4800 218° Southwest 428 493 34,000  Level FlightAware
Tue 11:29:31 AM 34.5260 -78.5400 218° Southwest 428 493 34,000  Level FlightAware
Tue 11:30:07 AM 34.4780 -78.5850 218° Southwest 428 493 34,000  Level FlightAware
Tue 11:30:22 AM 35.2370 -77.8620 38° Northeast 34,000  Level FlightAware
Tue 11:31:40 AM 34.3010 -78.7490 218° Southwest 427 491 34,000  Level FlightAware
Tue 11:32:22 AM 34.2870 -78.7620 217° Southwest 427 491 34,000  Level FlightAware
Tue 11:32:56 AM 34.1720 -78.8710 218° Southwest 428 493 34,000  Level FlightAware
Tue 11:33:41 AM 34.1020 -78.9360 218° Southwest 427 491 34,000  Level FlightAware
Tue 11:34:26 AM 34.0300 -79.0030 218° Southwest 429 494 34,000  Level FlightAware
Tue 11:35:01 AM 33.9750 -79.0540 218° Southwest 431 496 34,000  Level FlightAware
Tue 11:36:01 AM 33.8810 -79.1400 217° Southwest 432 497 34,000  Level FlightAware
Tue 11:36:46 AM 33.8120 -79.2030 217° Southwest 434 499 34,000  Level FlightAware
Tue 11:37:26 AM 33.7450 -79.2660 218° Southwest 435 501 34,000  Level FlightAware
Tue 11:38:06 AM 33.6810 -79.3240 217° Southwest 433 498 34,000  Level FlightAware
Tue 11:38:51 AM 33.6120 -79.3870 217° Southwest 432 497 34,000  Level FlightAware
Tue 11:39:31 AM 33.5460 -79.4480 218° Southwest 431 496 34,000  Level FlightAware
Tue 11:40:26 AM 33.4610 -79.5250 217° Southwest 433 498 34,000  Level FlightAware
Tue 11:41:11 AM 33.3870 -79.5930 218° Southwest 435 501 34,000  Level FlightAware
Tue 11:41:51 AM 33.3250 -79.6550 220° Southwest 435 501 34,000  Level FlightAware
Tue 11:42:36 AM 33.2600 -79.7280 223° Southwest 436 502 34,000  Level FlightAware
Tue 11:43:11 AM 33.2060 -79.7850 221° Southwest 436 502 34,000  Level FlightAware
Tue 11:43:56 AM 33.1380 -79.8580 222° Southwest 436 502 34,000  Level FlightAware
Tue 11:44:36 AM 33.0800 -79.9200 222° Southwest 436 502 34,000  Level FlightAware
Tue 11:45:16 AM 33.0200 -79.9840 222° Southwest 436 502 34,000  Level FlightAware
Tue 11:46:16 AM 32.9290 -80.0800 222° Southwest 436 502 34,000  Level FlightAware
Tue 11:46:57 AM 32.8990 -80.1120 222° Southwest 436 502 34,000  Level FlightAware
Tue 11:47:41 AM 32.8250 -80.1900 222° Southwest 437 503 34,000  Level FlightAware
Tue 11:48:11 AM 32.7560 -80.2620 221° Southwest 437 503 34,000  Level FlightAware
Tue 11:48:50 AM 32.6960 -80.3260 222° Southwest 437 503 34,000  Level FlightAware
Tue 11:49:30 AM 32.6390 -80.3850 221° Southwest 437 503 34,000  Level FlightAware
Tue 11:50:15 AM 32.5690 -80.4590 222° Southwest 437 503 34,000  Level FlightAware
Tue 11:50:56 AM 32.5070 -80.5240 221° Southwest 435 501 34,000  Level FlightAware
Tue 11:51:41 AM 32.4380 -80.5950 221° Southwest 437 503 34,000 -424 Level FlightAware
Tue 11:52:21 AM 32.3770 -80.6590 222° Southwest 437 503 33,400 -975 Descending FlightAware
Tue 11:53:01 AM 32.3170 -80.7210 221° Southwest 442 509 32,700 -988 Descending FlightAware
Tue 11:53:46 AM 32.2470 -80.7930 221° Southwest 438 504 32,000 -494 Descending FlightAware
Tue 11:54:26 AM 32.1900 -80.8520 221° Southwest 439 505 32,000  Level FlightAware
Tue 11:55:06 AM 32.1290 -80.9160 222° Southwest 438 504 32,000  Level FlightAware
Tue 11:55:51 AM 32.0630 -80.9840 221° Southwest 438 504 32,000  Level FlightAware
Tue 11:56:46 AM 32.0060 -81.0430 221° Southwest 438 504 32,000  Level FlightAware
Tue 11:57:28 AM 31.9430 -81.1070 221° Southwest 440 506 32,000  Level FlightAware
Tue 11:58:11 AM 31.8750 -81.1770 221° Southwest 441 507 32,000  Level FlightAware
Tue 11:58:53 AM 31.8170 -81.2360 221° Southwest 440 506 32,000  Level FlightAware
Tue 11:59:34 AM 31.7490 -81.3060 221° Southwest 441 507 32,000  Level FlightAware
Tue 12:00:31 PM 31.6600 -81.3970 221° Southwest 443 510 32,000  Level FlightAware
Tue 12:01:09 PM 31.6020 -81.4560 221° Southwest 444 511 32,000  Level FlightAware
Tue 12:01:50 PM 31.5410 -81.5180 221° Southwest 445 512 32,000  Level FlightAware
Tue 12:02:35 PM 31.4730 -81.5860 220° Southwest 445 512 32,000  Level FlightAware
Tue 12:03:19 PM 31.4060 -81.6540 221° Southwest 445 512 32,000  Level FlightAware
Tue 12:04:00 PM 31.3540 -81.7060 221° Southwest 445 512 32,000  Level FlightAware
Tue 12:04:39 PM 31.3020 -81.7580 221° Southwest 445 512 32,000  Level FlightAware
Tue 12:05:22 PM 31.2440 -81.8140 220° Southwest 445 512 32,000  Level FlightAware
Tue 12:05:52 PM 31.2040 -81.8540 221° Southwest 445 512 32,000  Level FlightAware
Tue 12:06:40 PM 31.1400 -81.9170 220° Southwest 445 512 32,000  Level FlightAware
Tue 12:07:15 PM 31.0930 -81.9630 220° Southwest 445 512 32,000  Level FlightAware
Tue 12:08:01 PM 31.0310 -82.0230 220° Southwest 445 512 32,000  Level FlightAware
Tue 12:08:39 PM 30.9800 -82.0730 220° Southwest 445 512 32,000  Level FlightAware
Tue 12:09:28 PM 30.9150 -82.1370 220° Southwest 445 512 32,000  Level FlightAware
Tue 12:10:02 PM 30.8690 -82.1820 220° Southwest 445 512 32,000  Level FlightAware
Tue 12:11:06 PM 30.7830 -82.2660 220° Southwest 445 512 32,000  Level FlightAware
Tue 12:11:48 PM 30.7270 -82.3210 220° Southwest 445 512 32,000  Level FlightAware
Tue 12:12:25 PM 30.6770 -82.3690 220° Southwest 445 512 32,000  Level FlightAware
Tue 12:13:24 PM 30.5980 -82.4460 220° Southwest 445 512 32,000 -85 Level FlightAware
Tue 12:15:58 PM 29.9150 -82.2750 168° South 444 511 31,700 -208 Descending FlightAware
Tue 12:16:46 PM 29.8270 -82.2970 192° South 440 506 31,300 -1,485 Descending FlightAware
Tue 12:17:35 PM 29.7260 -82.3230 193° South 420 483 29,300 -2,176 Descending FlightAware
Tue 12:18:17 PM 29.6440 -82.3440 193° South 409 471 28,000 -1,875 Descending FlightAware
Tue 12:18:55 PM 29.5760 -82.3570 189° South 403 464 26,800 -1,395 Descending FlightAware
Tue 12:19:43 PM 29.4860 -82.3460 174° South 408 470 26,000 -1,773 Descending FlightAware
Tue 12:21:07 PM 29.3270 -82.3280 174° South 421 484 22,900 -2,238 Descending FlightAware
Tue 12:21:49 PM 29.2420 -82.3170 174° South 410 472 21,300 -2,122 Descending FlightAware
Tue 12:22:29 PM 29.1670 -82.3080 174° South 397 457 20,000 -2,047 Descending FlightAware
Tue 12:23:14 PM 29.0870 -82.2970 173° South 389 448 18,400 -2,122 Descending FlightAware
Tue 12:23:51 PM 29.0230 -82.2730 162° South 383 441 17,100 -1,317 Descending FlightAware
Tue 12:24:36 PM 28.9590 -82.2440 158° South 380 437 16,600 -1,953 Descending FlightAware
Tue 12:25:17 PM 28.8890 -82.2020 152° Southeast 362 417 14,300 -2,571 Descending FlightAware
Tue 12:26:00 PM 28.8270 -82.1630 151° Southeast 356 410 13,000 -1,000 Descending FlightAware
Tue 12:26:41 PM 28.7630 -82.1360 160° South 348 400 12,900 -72 Descending FlightAware
Tue 12:27:23 PM 28.7010 -82.1400 183° South 301 346 12,900 -690 Level FlightAware
Tue 12:28:08 PM 28.6440 -82.1590 196° South 291 335 11,900 -1,357 Descending FlightAware
Tue 12:28:47 PM 28.5930 -82.1810 201° Southwest 284 327 11,000 -1,481 Descending FlightAware
Tue 12:29:29 PM 28.5430 -82.2040 202° Southwest 283 326 9,900 -1,606 Descending FlightAware
Tue 12:29:58 PM 28.5090 -82.2220 205° Southwest 282 325 9,100 -1,579 Descending FlightAware
Tue 12:30:26 PM 28.4760 -82.2420 208° Southwest 279 321 8,400 -1,031 Descending FlightAware
Tue 12:31:02 PM 28.4580 -82.2540 210° Southwest 276 318 8,000 -1,932 Descending FlightAware
Tue 12:31:25 PM 28.4140 -82.2830 210° Southwest 271 312 6,500 -2,588 Descending FlightAware
Tue 12:31:53 PM 28.3850 -82.3020 210° Southwest 269 310 5,800 -737 Descending FlightAware
Tue 12:32:22 PM 28.3520 -82.3240 210° Southwest 268 308 5,800  Level FlightAware
Tue 12:32:41 PM 28.3340 -82.3350 208° Southwest 267 307 5,800 -122 Level FlightAware
Tue 12:33:11 PM 28.3030 -82.3610 216° Southwest 267 307 5,700 -429 Descending FlightAware
Tue 12:33:23 PM 28.2930 -82.3730 227° Southwest 263 303 5,500 -1,902 Descending FlightAware
Tue 12:33:52 PM 28.2660 -82.4000 221° Southwest 257 296 4,400 -2,276 Descending FlightAware
Tue 12:34:21 PM 28.2410 -82.4250 221° Southwest 261 300 3,300 -1,811 Descending FlightAware
Tue 12:34:45 PM 28.2180 -82.4470 220° Southwest 267 307 2,800 -536 Descending FlightAware
Tue 12:35:17 PM 28.1890 -82.4750 220° Southwest 259 298 2,800  Level FlightAware
Tue 12:36:39 PM 28.1660 -82.4970 220° Southwest 240 276 2,800 -57 Level FlightAware
Tue 12:37:03 PM 28.1370 -82.5220 217° Southwest 230 265 2,700 -764 Descending FlightAware
Tue 12:37:34 PM 28.1050 -82.5240 183° South 217 250 2,100 -1,800 Descending FlightAware
Tue 12:38:03 PM 28.0410 -82.5260 182° South 145 167 900 -1,667 Descending FlightAware
Tue 12:38:28 PM 28.0260 -82.5270 183° South 141 162 600 -638 Descending FlightAware
Tue 12:38:50 PM 28.0110 -82.5270 180° South 137 158 400 -638 Descending FlightAware
Tue 12:39:15 PM 27.9960 -82.5280 183° South 137 158 100 -340 Descending FlightAware
Tue 12:39:43 PM 27.9810 -82.5290 183° South 137 158 100  Level FlightAware

Login

Don't have an account? Register now (free) for customized features, flight alerts, and more!